createdAt,value
2023-04-18T00:03:27.090Z,2.75
2023-04-18T00:07:29.000Z,3.30
2023-04-18T00:11:30.769Z,3.08
2023-04-18T00:15:34.500Z,4.45
2023-04-18T00:19:37.603Z,5.85
2023-04-18T00:23:39.841Z,4.15
2023-04-18T00:27:41.695Z,3.72
2023-04-18T00:31:43.454Z,3.47
2023-04-18T00:35:45.185Z,3.50
2023-04-18T00:39:46.931Z,2.50
2023-04-18T00:43:48.708Z,3.42
2023-04-18T00:47:50.548Z,2.75
2023-04-18T00:51:53.352Z,3.67
2023-04-18T00:55:55.249Z,5.50
2023-04-18T00:59:57.277Z,6.35
2023-04-18T01:03:59.672Z,6.20
2023-04-18T01:08:02.046Z,5.75
2023-04-18T01:12:04.287Z,6.68
2023-04-18T01:16:06.367Z,4.18
2023-04-18T01:20:08.952Z,4.15
2023-04-18T01:24:12.833Z,3.78
2023-04-18T01:28:16.790Z,3.55
2023-04-18T01:32:20.473Z,4.05
2023-04-18T01:36:22.315Z,3.85
2023-04-18T01:40:24.985Z,3.25
2023-04-18T01:44:28.272Z,3.33
2023-04-18T01:48:30.152Z,3.90
2023-04-18T01:52:31.891Z,4.10
2023-04-18T01:56:33.660Z,8.10
2023-04-18T02:00:36.184Z,7.13
2023-04-18T02:04:37.980Z,6.00
2023-04-18T02:08:39.699Z,7.57
2023-04-18T02:12:41.410Z,5.60
2023-04-18T02:16:43.195Z,8.25
2023-04-18T02:20:45.243Z,10.18
2023-04-18T02:24:47.074Z,8.23
2023-04-18T02:28:50.374Z,8.20
2023-04-18T02:32:53.355Z,6.65
2023-04-18T02:36:58.829Z,6.93
2023-04-18T02:41:00.576Z,7.93
2023-04-18T02:45:02.486Z,8.10
2023-04-18T02:49:05.413Z,7.45
2023-04-18T02:53:07.413Z,9.13
2023-04-18T02:57:23.614Z,8.05
2023-04-18T03:01:45.777Z,6.80
2023-04-18T03:05:50.779Z,9.30
2023-04-18T03:09:53.121Z,6.90
2023-04-18T03:14:02.660Z,10.68
2023-04-18T03:18:12.742Z,9.80
2023-04-18T03:22:16.639Z,8.77
2023-04-18T03:26:31.340Z,7.95
2023-04-18T03:30:33.523Z,8.70
2023-04-18T03:34:36.825Z,6.25
2023-04-18T03:38:42.137Z,7.38
2023-04-18T03:42:44.620Z,8.15
2023-04-18T03:46:46.721Z,13.38
2023-04-18T03:50:49.889Z,7.95
2023-04-18T03:54:52.039Z,6.82
2023-04-18T03:58:59.078Z,5.97
2023-04-18T04:03:02.105Z,7.40
2023-04-18T04:07:04.568Z,7.18
2023-04-18T04:11:06.875Z,6.82
2023-04-18T04:15:09.247Z,5.00
2023-04-18T04:19:15.233Z,5.72
2023-04-18T04:23:29.361Z,6.38
2023-04-18T04:27:34.146Z,7.03
2023-04-18T04:31:37.419Z,8.43
2023-04-18T04:35:39.569Z,11.55
2023-04-18T04:39:44.905Z,9.35
2023-04-18T04:44:05.745Z,10.98
2023-04-18T04:48:10.040Z,11.55
2023-04-18T04:52:12.444Z,8.20
2023-04-18T04:56:15.184Z,10.48
2023-04-18T05:00:20.985Z,8.50
2023-04-18T05:04:24.610Z,10.43
2023-04-18T05:08:26.764Z,8.73
2023-04-18T05:12:28.554Z,10.65
2023-04-18T05:16:30.343Z,9.00
2023-04-18T05:20:32.205Z,10.52
2023-04-18T05:24:34.004Z,6.93
2023-04-18T05:28:35.752Z,9.35
2023-04-18T05:32:39.106Z,7.03
2023-04-18T05:36:41.135Z,6.25
2023-04-18T05:40:43.402Z,5.50
2023-04-18T05:44:45.270Z,6.95
2023-04-18T05:48:47.039Z,6.15
2023-04-18T05:52:48.765Z,5.72
2023-04-18T05:56:51.300Z,9.63
2023-04-18T06:00:53.412Z,9.18
2023-04-18T06:04:56.716Z,9.75
2023-04-18T06:08:58.557Z,6.82
2023-04-18T06:13:00.294Z,5.10
2023-04-18T06:17:02.021Z,6.80
2023-04-18T06:21:04.020Z,6.35
2023-04-18T06:25:06.337Z,5.28
2023-04-18T06:29:08.047Z,5.97
2023-04-18T06:33:11.042Z,6.65
2023-04-18T06:37:12.827Z,6.20
2023-04-18T06:41:15.105Z,6.68
2023-04-18T06:45:17.316Z,7.75
2023-04-18T06:49:19.731Z,5.72
2023-04-18T06:53:22.667Z,7.40
2023-04-18T06:57:24.567Z,8.68
2023-04-18T07:01:26.356Z,9.18
2023-04-18T07:05:28.081Z,6.88
2023-04-18T07:09:29.790Z,8.95
2023-04-18T07:13:31.617Z,5.93
2023-04-18T07:17:33.477Z,5.78
2023-04-18T07:21:35.283Z,11.05
2023-04-18T07:25:37.589Z,8.55
2023-04-18T07:29:39.371Z,8.50
2023-04-18T07:33:41.162Z,5.00
2023-04-18T07:37:43.045Z,5.47
2023-04-18T07:41:44.783Z,4.05
2023-04-18T07:45:46.493Z,7.22
2023-04-18T07:49:48.217Z,5.05
2023-04-18T07:53:49.879Z,5.43
2023-04-18T07:57:51.656Z,5.50
2023-04-18T08:01:53.452Z,3.60
2023-04-18T08:05:55.900Z,3.72
2023-04-18T08:09:57.630Z,6.72
2023-04-18T08:13:59.552Z,4.60
2023-04-18T08:18:01.763Z,4.50
2023-04-18T08:22:09.455Z,3.72
2023-04-18T08:26:11.225Z,4.20
2023-04-18T08:30:13.710Z,3.80
2023-04-18T08:34:15.556Z,5.53
2023-04-18T08:38:18.673Z,6.75
2023-04-18T08:42:22.856Z,5.43
2023-04-18T08:46:24.861Z,3.85
2023-04-18T08:50:27.558Z,5.15
2023-04-18T08:54:30.540Z,6.25
2023-04-18T08:58:33.884Z,3.28
2023-04-18T09:02:43.722Z,5.60
2023-04-18T09:06:52.962Z,4.90
2023-04-18T09:10:54.749Z,5.60
2023-04-18T09:15:09.496Z,4.00
2023-04-18T09:19:14.280Z,4.57
2023-04-18T09:23:23.403Z,4.78
2023-04-18T09:27:25.177Z,3.17
2023-04-18T09:31:27.759Z,4.72
2023-04-18T09:35:29.841Z,3.83
2023-04-18T09:39:31.556Z,4.32
2023-04-18T09:43:33.287Z,4.60
2023-04-18T09:47:36.316Z,3.78
2023-04-18T09:51:40.370Z,5.70
2023-04-18T09:55:42.652Z,4.75
2023-04-18T09:59:51.255Z,4.03
2023-04-18T10:03:55.706Z,3.38
2023-04-18T10:07:57.809Z,3.72
2023-04-18T10:12:02.199Z,3.95
2023-04-18T10:16:04.300Z,5.57
2023-04-18T10:20:13.010Z,3.72
2023-04-18T10:24:49.474Z,3.63
2023-04-18T10:28:54.399Z,3.10
2023-04-18T10:32:56.353Z,2.97
2023-04-18T10:37:05.403Z,3.55
2023-04-18T10:41:14.350Z,3.88
2023-04-18T10:45:23.015Z,2.92
2023-04-18T10:49:27.829Z,4.25
2023-04-18T10:53:30.822Z,3.28
2023-04-18T10:57:39.060Z,3.33
2023-04-18T11:01:46.336Z,2.88
2023-04-18T11:05:48.216Z,3.65
2023-04-18T11:09:56.470Z,3.75
2023-04-18T11:13:59.236Z,2.50
2023-04-18T11:18:05.099Z,2.60
2023-04-18T11:22:06.952Z,3.97
2023-04-18T11:26:08.754Z,3.42
2023-04-18T11:30:11.514Z,2.67
2023-04-18T11:34:13.557Z,2.30
2023-04-18T11:38:16.221Z,3.63
2023-04-18T11:42:17.989Z,2.78
2023-04-18T11:46:19.781Z,3.53
2023-04-18T11:50:21.549Z,3.50
2023-04-18T11:54:43.393Z,3.20
2023-04-18T11:58:45.213Z,3.75
2023-04-18T12:02:49.726Z,2.75
2023-04-18T12:06:53.763Z,2.20
2023-04-18T12:10:55.836Z,2.90
2023-04-18T12:15:06.707Z,3.20
2023-04-18T12:19:11.285Z,1.90
2023-04-18T12:23:33.756Z,3.63
2023-04-18T12:27:50.803Z,3.40
2023-04-18T12:31:52.865Z,2.60
2023-04-18T12:35:54.834Z,2.63
2023-04-18T12:39:56.566Z,2.42
2023-04-18T12:43:58.291Z,2.28
2023-04-18T12:48:00.240Z,1.70
2023-04-18T12:52:02.014Z,1.58
2023-04-18T12:56:04.479Z,1.60
2023-04-18T13:00:10.996Z,1.70
2023-04-18T13:04:13.417Z,1.40
2023-04-18T13:08:18.020Z,1.50
2023-04-18T13:12:19.975Z,1.30
2023-04-18T13:16:22.579Z,1.63
2023-04-18T13:20:24.506Z,1.40
2023-04-18T13:24:26.212Z,1.42
2023-04-18T13:28:28.018Z,1.52
2023-04-18T13:32:29.886Z,1.73
2023-04-18T13:36:34.745Z,1.20
2023-04-18T13:40:38.814Z,1.65
2023-04-18T13:44:40.593Z,1.20
2023-04-18T13:48:42.335Z,1.98
2023-04-18T13:52:44.066Z,1.13
2023-04-18T13:56:45.985Z,1.45
2023-04-18T14:00:47.739Z,1.23
2023-04-18T14:04:49.721Z,1.25
2023-04-18T14:08:51.547Z,0.98
2023-04-18T14:12:53.278Z,0.90
2023-04-18T14:16:55.091Z,1.15
2023-04-18T14:20:56.880Z,0.95
2023-04-18T14:24:58.619Z,1.00
2023-04-18T14:29:00.666Z,0.88
2023-04-18T14:33:02.642Z,1.02
2023-04-18T14:37:04.424Z,1.60
2023-04-18T14:41:06.341Z,1.50
2023-04-18T14:45:08.567Z,1.60
2023-04-18T14:49:10.327Z,2.30
2023-04-18T14:53:12.210Z,1.90
2023-04-18T14:57:13.943Z,1.83
2023-04-18T15:01:17.507Z,2.28
2023-04-18T15:05:23.617Z,1.90
2023-04-18T15:09:25.315Z,2.13
2023-04-18T15:13:27.083Z,2.38
2023-04-18T15:17:29.533Z,2.85
2023-04-18T15:21:31.432Z,2.25
2023-04-18T15:25:35.097Z,2.70
2023-04-18T15:29:38.198Z,3.17
2023-04-18T15:33:39.935Z,2.47
2023-04-18T15:37:41.742Z,3.78
2023-04-18T15:41:43.450Z,2.42
2023-04-18T15:45:45.417Z,3.40
2023-04-18T15:49:47.322Z,2.92
2023-04-18T15:53:49.012Z,1.88
2023-04-18T15:57:50.792Z,2.38
2023-04-18T16:01:52.679Z,2.70
2023-04-18T16:05:54.620Z,2.65
2023-04-18T16:09:56.305Z,2.20
2023-04-18T16:13:58.034Z,1.48
2023-04-18T16:17:59.822Z,1.40
2023-04-18T16:22:01.704Z,1.75
2023-04-18T16:26:03.526Z,1.45
2023-04-18T16:30:05.785Z,1.88
2023-04-18T16:34:07.578Z,4.70
2023-04-18T16:38:09.326Z,1.42
2023-04-18T16:42:12.397Z,1.35
2023-04-18T16:46:15.495Z,1.25
2023-04-18T16:50:17.280Z,1.35
2023-04-18T16:54:19.078Z,1.33
2023-04-18T16:58:21.640Z,0.90
2023-04-18T17:02:23.466Z,1.20
2023-04-18T17:06:25.509Z,1.30
2023-04-18T17:10:29.568Z,1.27
2023-04-18T17:14:31.360Z,1.20
2023-04-18T17:18:33.148Z,1.45
2023-04-18T17:22:34.872Z,1.35
2023-04-18T17:26:38.850Z,1.35
2023-04-18T17:30:41.916Z,1.40
2023-04-18T17:34:43.699Z,1.30
2023-04-18T17:38:51.480Z,1.40
2023-04-18T17:42:54.743Z,1.33
2023-04-18T17:46:56.488Z,1.30
2023-04-18T17:50:58.301Z,1.02
2023-04-18T17:55:03.110Z,1.20
2023-04-18T17:59:07.388Z,1.75
2023-04-18T18:03:13.623Z,1.30
2023-04-18T18:07:16.025Z,1.48
2023-04-18T18:11:17.867Z,1.00
2023-04-18T18:15:19.728Z,1.20
2023-04-18T18:19:21.523Z,2.80
2023-04-18T18:23:23.647Z,1.35
2023-04-18T18:27:25.457Z,2.30
2023-04-18T18:31:27.353Z,1.67
2023-04-18T18:35:29.467Z,1.85
2023-04-18T18:39:31.207Z,2.80
2023-04-18T18:43:32.923Z,1.60
2023-04-18T18:47:35.808Z,1.48
2023-04-18T18:51:38.621Z,1.25
2023-04-18T18:55:40.811Z,1.73
2023-04-18T18:59:42.624Z,1.10
2023-04-18T19:03:44.468Z,1.70
2023-04-18T19:07:46.305Z,1.10
2023-04-18T19:11:48.065Z,1.20
2023-04-18T19:15:50.001Z,0.93
2023-04-18T19:19:52.813Z,1.10
2023-04-18T19:23:54.664Z,1.00
2023-04-18T19:27:56.405Z,1.20
2023-04-18T19:31:58.299Z,1.20
2023-04-18T19:36:00.295Z,1.02
2023-04-18T19:40:02.797Z,1.02
2023-04-18T19:44:04.847Z,1.30
2023-04-18T19:48:06.684Z,1.23
2023-04-18T19:52:08.552Z,1.50
2023-04-18T19:56:12.412Z,1.90
2023-04-18T20:00:15.404Z,1.48
2023-04-18T20:04:17.448Z,1.50
2023-04-18T20:08:19.705Z,1.63
2023-04-18T20:12:21.401Z,1.42
2023-04-18T20:16:23.722Z,1.30
2023-04-18T20:20:25.602Z,1.50
2023-04-18T20:24:28.084Z,1.40
2023-04-18T20:28:31.583Z,1.52
2023-04-18T20:32:33.521Z,1.30
2023-04-18T20:36:36.266Z,1.35
2023-04-18T20:40:39.081Z,1.33
2023-04-18T20:44:43.267Z,1.35
2023-04-18T20:48:45.066Z,1.40
2023-04-18T20:52:47.556Z,1.77
2023-04-18T20:56:49.329Z,1.40
2023-04-18T21:00:52.101Z,1.48
2023-04-18T21:04:54.156Z,1.50
2023-04-18T21:08:55.888Z,1.75
2023-04-18T21:12:57.621Z,1.55
2023-04-18T21:17:00.417Z,1.55
2023-04-18T21:21:02.213Z,1.48
2023-04-18T21:25:05.091Z,1.42
2023-04-18T21:29:06.935Z,1.60
2023-04-18T21:33:08.636Z,1.60
2023-04-18T21:37:10.418Z,1.73
2023-04-18T21:41:16.929Z,2.42
2023-04-18T21:45:18.967Z,1.92
2023-04-18T21:49:20.702Z,2.38
2023-04-18T21:53:22.737Z,2.10
2023-04-18T21:57:24.432Z,2.10
2023-04-18T22:01:26.200Z,2.13
2023-04-18T22:05:28.804Z,3.05
2023-04-18T22:09:31.368Z,3.55
2023-04-18T22:13:33.189Z,2.42
2023-04-18T22:17:37.154Z,1.92
2023-04-18T22:21:38.863Z,1.70
2023-04-18T22:25:40.985Z,1.45
2023-04-18T22:29:42.728Z,2.38
2023-04-18T22:33:47.471Z,1.60
2023-04-18T22:37:49.199Z,2.70
2023-04-18T22:41:50.919Z,1.63
2023-04-18T22:45:52.802Z,1.90
2023-04-18T22:49:54.561Z,1.80
2023-04-18T22:53:56.406Z,1.50
2023-04-18T22:57:58.142Z,1.60
2023-04-18T23:01:59.978Z,1.50
2023-04-18T23:06:01.962Z,1.48
2023-04-18T23:10:06.632Z,1.67
2023-04-18T23:14:11.288Z,2.08
2023-04-18T23:18:13.062Z,1.90
2023-04-18T23:22:14.804Z,1.85
2023-04-18T23:26:16.717Z,2.20
2023-04-18T23:30:18.479Z,2.42
2023-04-18T23:34:20.209Z,3.33
2023-04-18T23:38:22.099Z,1.95
2023-04-18T23:42:24.632Z,2.35
2023-04-18T23:46:28.037Z,3.90
2023-04-18T23:50:29.886Z,3.58
2023-04-18T23:54:31.601Z,2.35
2023-04-18T23:58:33.375Z,2.35
